sensor_id;sensor_type;location;lat;lon;timestamp;P1;durP1;ratioP1;P2;durP2;ratioP2
82783;SDS011;72520;55.762;37.780;2023-09-30T00:00:08;23.75;;;12.27;;
82783;SDS011;72520;55.762;37.780;2023-09-30T00:03:13;23.42;;;11.20;;
82783;SDS011;72520;55.762;37.780;2023-09-30T00:06:15;20.50;;;11.88;;
82783;SDS011;72520;55.762;37.780;2023-09-30T00:09:18;25.23;;;11.88;;
82783;SDS011;72520;55.762;37.780;2023-09-30T00:12:20;24.42;;;12.35;;
82783;SDS011;72520;55.762;37.780;2023-09-30T00:15:22;22.88;;;11.07;;
82783;SDS011;72520;55.762;37.780;2023-09-30T00:18:26;25.00;;;11.65;;
82783;SDS011;72520;55.762;37.780;2023-09-30T00:21:28;22.08;;;11.57;;
82783;SDS011;72520;55.762;37.780;2023-09-30T00:24:30;24.67;;;12.63;;
82783;SDS011;72520;55.762;37.780;2023-09-30T00:27:35;23.80;;;12.43;;
82783;SDS011;72520;55.762;37.780;2023-09-30T00:30:38;25.27;;;12.20;;
82783;SDS011;72520;55.762;37.780;2023-09-30T00:33:41;21.40;;;11.10;;
82783;SDS011;72520;55.762;37.780;2023-09-30T00:36:44;20.02;;;10.73;;
82783;SDS011;72520;55.762;37.780;2023-09-30T00:39:46;22.73;;;11.63;;
82783;SDS011;72520;55.762;37.780;2023-09-30T00:42:48;26.92;;;10.32;;
82783;SDS011;72520;55.762;37.780;2023-09-30T00:45:51;22.00;;;11.65;;
82783;SDS011;72520;55.762;37.780;2023-09-30T00:49:00;21.23;;;10.93;;
82783;SDS011;72520;55.762;37.780;2023-09-30T00:52:04;21.60;;;11.10;;
82783;SDS011;72520;55.762;37.780;2023-09-30T00:55:06;21.13;;;11.55;;
82783;SDS011;72520;55.762;37.780;2023-09-30T00:58:11;22.13;;;11.35;;
82783;SDS011;72520;55.762;37.780;2023-09-30T01:01:13;21.02;;;11.18;;
82783;SDS011;72520;55.762;37.780;2023-09-30T01:04:20;24.65;;;11.80;;
82783;SDS011;72520;55.762;37.780;2023-09-30T01:07:23;21.48;;;10.77;;
82783;SDS011;72520;55.762;37.780;2023-09-30T01:10:25;22.85;;;11.32;;
82783;SDS011;72520;55.762;37.780;2023-09-30T01:13:31;20.20;;;10.75;;
82783;SDS011;72520;55.762;37.780;2023-09-30T01:16:36;20.13;;;11.13;;
82783;SDS011;72520;55.762;37.780;2023-09-30T01:19:39;24.17;;;11.15;;
82783;SDS011;72520;55.762;37.780;2023-09-30T01:22:44;24.05;;;12.27;;
82783;SDS011;72520;55.762;37.780;2023-09-30T01:25:46;23.83;;;11.63;;
82783;SDS011;72520;55.762;37.780;2023-09-30T01:28:50;24.25;;;10.70;;
82783;SDS011;72520;55.762;37.780;2023-09-30T01:31:52;21.92;;;10.77;;
82783;SDS011;72520;55.762;37.780;2023-09-30T01:34:54;20.08;;;10.70;;
82783;SDS011;72520;55.762;37.780;2023-09-30T01:37:57;23.67;;;11.98;;
82783;SDS011;72520;55.762;37.780;2023-09-30T01:40:59;19.67;;;10.82;;
82783;SDS011;72520;55.762;37.780;2023-09-30T01:44:02;25.13;;;11.05;;
82783;SDS011;72520;55.762;37.780;2023-09-30T01:47:04;20.38;;;10.73;;
82783;SDS011;72520;55.762;37.780;2023-09-30T01:50:06;29.08;;;11.65;;
82783;SDS011;72520;55.762;37.780;2023-09-30T01:53:10;22.90;;;11.90;;
82783;SDS011;72520;55.762;37.780;2023-09-30T01:56:12;23.80;;;11.15;;
82783;SDS011;72520;55.762;37.780;2023-09-30T01:59:15;32.03;;;13.43;;
82783;SDS011;72520;55.762;37.780;2023-09-30T02:02:18;25.73;;;13.10;;
82783;SDS011;72520;55.762;37.780;2023-09-30T02:05:20;23.50;;;11.68;;
82783;SDS011;72520;55.762;37.780;2023-09-30T02:08:24;23.67;;;11.00;;
82783;SDS011;72520;55.762;37.780;2023-09-30T02:11:26;19.63;;;10.82;;
82783;SDS011;72520;55.762;37.780;2023-09-30T02:14:29;25.15;;;11.60;;
82783;SDS011;72520;55.762;37.780;2023-09-30T02:17:31;22.20;;;10.80;;
82783;SDS011;72520;55.762;37.780;2023-09-30T02:20:34;21.17;;;10.98;;
82783;SDS011;72520;55.762;37.780;2023-09-30T02:23:41;27.95;;;11.20;;
82783;SDS011;72520;55.762;37.780;2023-09-30T02:26:48;21.92;;;10.80;;
82783;SDS011;72520;55.762;37.780;2023-09-30T02:29:50;20.10;;;10.77;;
82783;SDS011;72520;55.762;37.780;2023-09-30T02:32:52;19.05;;;10.63;;
82783;SDS011;72520;55.762;37.780;2023-09-30T02:35:56;21.02;;;10.27;;
82783;SDS011;72520;55.762;37.780;2023-09-30T02:39:01;25.10;;;10.90;;
82783;SDS011;72520;55.762;37.780;2023-09-30T02:42:03;19.75;;;11.40;;
82783;SDS011;72520;55.762;37.780;2023-09-30T02:45:05;22.17;;;11.95;;
82783;SDS011;72520;55.762;37.780;2023-09-30T02:48:09;23.10;;;11.60;;
82783;SDS011;72520;55.762;37.780;2023-09-30T02:51:11;25.27;;;12.10;;
82783;SDS011;72520;55.762;37.780;2023-09-30T02:54:16;22.90;;;11.70;;
82783;SDS011;72520;55.762;37.780;2023-09-30T02:57:18;16.60;;;10.32;;
82783;SDS011;72520;55.762;37.780;2023-09-30T03:00:21;21.65;;;10.77;;
82783;SDS011;72520;55.762;37.780;2023-09-30T03:03:27;21.65;;;11.05;;
82783;SDS011;72520;55.762;37.780;2023-09-30T03:06:29;23.55;;;10.82;;
82783;SDS011;72520;55.762;37.780;2023-09-30T03:09:33;20.23;;;10.98;;
82783;SDS011;72520;55.762;37.780;2023-09-30T03:12:35;20.80;;;10.63;;
82783;SDS011;72520;55.762;37.780;2023-09-30T03:15:37;23.33;;;10.57;;
82783;SDS011;72520;55.762;37.780;2023-09-30T03:18:39;23.83;;;11.13;;
82783;SDS011;72520;55.762;37.780;2023-09-30T03:21:46;23.77;;;11.02;;
82783;SDS011;72520;55.762;37.780;2023-09-30T03:24:49;23.90;;;11.25;;
82783;SDS011;72520;55.762;37.780;2023-09-30T03:27:51;23.17;;;11.55;;
82783;SDS011;72520;55.762;37.780;2023-09-30T03:30:53;22.58;;;11.20;;
82783;SDS011;72520;55.762;37.780;2023-09-30T03:33:56;20.50;;;11.23;;
82783;SDS011;72520;55.762;37.780;2023-09-30T03:36:59;23.30;;;10.55;;
82783;SDS011;72520;55.762;37.780;2023-09-30T03:40:05;21.25;;;11.40;;
82783;SDS011;72520;55.762;37.780;2023-09-30T03:43:14;26.90;;;11.07;;
82783;SDS011;72520;55.762;37.780;2023-09-30T03:46:16;28.15;;;12.88;;
82783;SDS011;72520;55.762;37.780;2023-09-30T03:49:18;23.75;;;11.77;;
82783;SDS011;72520;55.762;37.780;2023-09-30T03:52:21;25.27;;;11.00;;
82783;SDS011;72520;55.762;37.780;2023-09-30T03:55:27;22.83;;;11.57;;
82783;SDS011;72520;55.762;37.780;2023-09-30T03:58:30;25.00;;;11.55;;
82783;SDS011;72520;55.762;37.780;2023-09-30T04:01:33;27.70;;;12.23;;
82783;SDS011;72520;55.762;37.780;2023-09-30T04:04:35;25.58;;;13.50;;
82783;SDS011;72520;55.762;37.780;2023-09-30T04:07:37;22.33;;;11.40;;
82783;SDS011;72520;55.762;37.780;2023-09-30T04:10:41;20.20;;;11.43;;
82783;SDS011;72520;55.762;37.780;2023-09-30T04:13:44;20.65;;;11.38;;
82783;SDS011;72520;55.762;37.780;2023-09-30T04:16:46;25.23;;;11.30;;
82783;SDS011;72520;55.762;37.780;2023-09-30T04:19:48;18.92;;;11.07;;
82783;SDS011;72520;55.762;37.780;2023-09-30T04:22:52;22.60;;;11.82;;
82783;SDS011;72520;55.762;37.780;2023-09-30T04:25:59;23.35;;;12.27;;
82783;SDS011;72520;55.762;37.780;2023-09-30T04:29:01;22.42;;;11.27;;
82783;SDS011;72520;55.762;37.780;2023-09-30T04:32:10;21.15;;;10.98;;
82783;SDS011;72520;55.762;37.780;2023-09-30T04:35:12;31.40;;;11.63;;
82783;SDS011;72520;55.762;37.780;2023-09-30T04:38:15;21.92;;;10.50;;
82783;SDS011;72520;55.762;37.780;2023-09-30T04:41:19;19.48;;;9.88;;
82783;SDS011;72520;55.762;37.780;2023-09-30T04:47:24;18.88;;;11.05;;
82783;SDS011;72520;55.762;37.780;2023-09-30T04:50:26;23.20;;;11.70;;
82783;SDS011;72520;55.762;37.780;2023-09-30T04:53:30;19.60;;;10.77;;
82783;SDS011;72520;55.762;37.780;2023-09-30T04:56:35;19.27;;;10.35;;
82783;SDS011;72520;55.762;37.780;2023-09-30T04:59:39;19.48;;;10.55;;
82783;SDS011;72520;55.762;37.780;2023-09-30T05:02:43;20.60;;;10.77;;
82783;SDS011;72520;55.762;37.780;2023-09-30T05:05:46;22.35;;;11.07;;
82783;SDS011;72520;55.762;37.780;2023-09-30T05:08:48;22.80;;;11.70;;
82783;SDS011;72520;55.762;37.780;2023-09-30T05:11:52;20.33;;;11.32;;
82783;SDS011;72520;55.762;37.780;2023-09-30T05:14:54;21.92;;;12.50;;
82783;SDS011;72520;55.762;37.780;2023-09-30T05:17:56;19.38;;;11.20;;
82783;SDS011;72520;55.762;37.780;2023-09-30T05:20:58;23.33;;;12.38;;
82783;SDS011;72520;55.762;37.780;2023-09-30T05:24:00;19.75;;;11.05;;
82783;SDS011;72520;55.762;37.780;2023-09-30T05:27:07;20.10;;;10.52;;
82783;SDS011;72520;55.762;37.780;2023-09-30T05:30:10;18.35;;;9.88;;
82783;SDS011;72520;55.762;37.780;2023-09-30T05:33:12;20.63;;;11.57;;
82783;SDS011;72520;55.762;37.780;2023-09-30T05:36:15;23.85;;;11.40;;
82783;SDS011;72520;55.762;37.780;2023-09-30T05:39:17;25.92;;;11.63;;
82783;SDS011;72520;55.762;37.780;2023-09-30T05:42:21;24.27;;;12.07;;
82783;SDS011;72520;55.762;37.780;2023-09-30T05:45:24;23.83;;;11.98;;
82783;SDS011;72520;55.762;37.780;2023-09-30T05:48:27;23.05;;;12.05;;
82783;SDS011;72520;55.762;37.780;2023-09-30T05:51:29;17.63;;;10.35;;
82783;SDS011;72520;55.762;37.780;2023-09-30T05:54:32;23.25;;;11.48;;
82783;SDS011;72520;55.762;37.780;2023-09-30T05:57:36;26.70;;;11.98;;
82783;SDS011;72520;55.762;37.780;2023-09-30T06:00:39;23.77;;;10.85;;
82783;SDS011;72520;55.762;37.780;2023-09-30T06:03:42;23.65;;;10.80;;
82783;SDS011;72520;55.762;37.780;2023-09-30T06:06:47;22.83;;;11.13;;
82783;SDS011;72520;55.762;37.780;2023-09-30T06:09:49;22.70;;;10.70;;
82783;SDS011;72520;55.762;37.780;2023-09-30T06:12:52;18.52;;;10.68;;
82783;SDS011;72520;55.762;37.780;2023-09-30T06:15:56;16.58;;;10.18;;
82783;SDS011;72520;55.762;37.780;2023-09-30T06:18:59;20.65;;;10.45;;
82783;SDS011;72520;55.762;37.780;2023-09-30T06:22:04;22.02;;;9.90;;
82783;SDS011;72520;55.762;37.780;2023-09-30T06:25:06;21.55;;;10.38;;
82783;SDS011;72520;55.762;37.780;2023-09-30T06:28:10;17.83;;;9.52;;
82783;SDS011;72520;55.762;37.780;2023-09-30T06:31:14;18.80;;;10.02;;
82783;SDS011;72520;55.762;37.780;2023-09-30T06:34:17;16.85;;;10.05;;
82783;SDS011;72520;55.762;37.780;2023-09-30T06:37:19;22.45;;;10.07;;
82783;SDS011;72520;55.762;37.780;2023-09-30T06:40:21;20.67;;;9.60;;
82783;SDS011;72520;55.762;37.780;2023-09-30T06:43:25;18.92;;;9.40;;
82783;SDS011;72520;55.762;37.780;2023-09-30T06:46:30;17.35;;;8.65;;
82783;SDS011;72520;55.762;37.780;2023-09-30T06:49:34;16.20;;;8.95;;
82783;SDS011;72520;55.762;37.780;2023-09-30T06:52:38;18.23;;;9.20;;
82783;SDS011;72520;55.762;37.780;2023-09-30T06:55:41;17.92;;;9.95;;
82783;SDS011;72520;55.762;37.780;2023-09-30T06:58:45;19.13;;;9.85;;
82783;SDS011;72520;55.762;37.780;2023-09-30T07:01:47;16.13;;;8.73;;
82783;SDS011;72520;55.762;37.780;2023-09-30T07:04:50;15.43;;;8.38;;
82783;SDS011;72520;55.762;37.780;2023-09-30T07:07:54;15.68;;;9.05;;
82783;SDS011;72520;55.762;37.780;2023-09-30T07:10:57;18.45;;;8.98;;
82783;SDS011;72520;55.762;37.780;2023-09-30T07:14:04;18.25;;;9.07;;
82783;SDS011;72520;55.762;37.780;2023-09-30T07:17:06;17.88;;;8.32;;
82783;SDS011;72520;55.762;37.780;2023-09-30T07:20:08;15.82;;;8.65;;
82783;SDS011;72520;55.762;37.780;2023-09-30T07:23:11;15.27;;;8.25;;
82783;SDS011;72520;55.762;37.780;2023-09-30T07:26:13;16.20;;;8.55;;
82783;SDS011;72520;55.762;37.780;2023-09-30T07:29:17;16.80;;;8.60;;
82783;SDS011;72520;55.762;37.780;2023-09-30T07:35:23;13.10;;;7.35;;
82783;SDS011;72520;55.762;37.780;2023-09-30T07:38:28;11.68;;;7.78;;
82783;SDS011;72520;55.762;37.780;2023-09-30T07:41:34;17.85;;;8.93;;
82783;SDS011;72520;55.762;37.780;2023-09-30T07:44:38;16.95;;;7.47;;
82783;SDS011;72520;55.762;37.780;2023-09-30T07:47:40;17.20;;;7.40;;
82783;SDS011;72520;55.762;37.780;2023-09-30T07:50:42;14.73;;;6.80;;
82783;SDS011;72520;55.762;37.780;2023-09-30T07:53:44;19.23;;;7.60;;
82783;SDS011;72520;55.762;37.780;2023-09-30T07:56:47;14.02;;;6.90;;
82783;SDS011;72520;55.762;37.780;2023-09-30T07:59:50;12.95;;;7.65;;
82783;SDS011;72520;55.762;37.780;2023-09-30T08:02:53;14.40;;;6.88;;
82783;SDS011;72520;55.762;37.780;2023-09-30T08:05:55;13.18;;;6.88;;
82783;SDS011;72520;55.762;37.780;2023-09-30T08:08:58;14.30;;;6.55;;
82783;SDS011;72520;55.762;37.780;2023-09-30T08:12:00;17.20;;;6.38;;
82783;SDS011;72520;55.762;37.780;2023-09-30T08:15:05;22.58;;;6.57;;
82783;SDS011;72520;55.762;37.780;2023-09-30T08:18:09;16.02;;;6.57;;
82783;SDS011;72520;55.762;37.780;2023-09-30T08:21:11;13.02;;;6.53;;
82783;SDS011;72520;55.762;37.780;2023-09-30T08:24:16;11.80;;;6.82;;
82783;SDS011;72520;55.762;37.780;2023-09-30T08:27:18;18.88;;;9.38;;
82783;SDS011;72520;55.762;37.780;2023-09-30T08:30:22;16.58;;;7.55;;
82783;SDS011;72520;55.762;37.780;2023-09-30T08:33:24;14.68;;;8.00;;
82783;SDS011;72520;55.762;37.780;2023-09-30T08:36:28;21.05;;;9.75;;
82783;SDS011;72520;55.762;37.780;2023-09-30T08:39:30;15.45;;;7.97;;
82783;SDS011;72520;55.762;37.780;2023-09-30T08:42:32;21.05;;;10.63;;
82783;SDS011;72520;55.762;37.780;2023-09-30T08:45:36;12.18;;;7.72;;
82783;SDS011;72520;55.762;37.780;2023-09-30T08:48:45;18.85;;;6.72;;
82783;SDS011;72520;55.762;37.780;2023-09-30T08:51:48;15.05;;;9.60;;
82783;SDS011;72520;55.762;37.780;2023-09-30T08:54:52;14.27;;;7.68;;
82783;SDS011;72520;55.762;37.780;2023-09-30T08:57:55;17.92;;;7.43;;
82783;SDS011;72520;55.762;37.780;2023-09-30T09:04:01;14.85;;;6.40;;
82783;SDS011;72520;55.762;37.780;2023-09-30T09:07:05;13.50;;;7.93;;
82783;SDS011;72520;55.762;37.780;2023-09-30T09:10:08;12.15;;;6.35;;
82783;SDS011;72520;55.762;37.780;2023-09-30T09:13:13;13.60;;;6.20;;
82783;SDS011;72520;55.762;37.780;2023-09-30T09:16:17;13.65;;;6.88;;
82783;SDS011;72520;55.762;37.780;2023-09-30T09:19:20;13.80;;;7.72;;
82783;SDS011;72520;55.762;37.780;2023-09-30T09:22:22;9.93;;;6.15;;
82783;SDS011;72520;55.762;37.780;2023-09-30T09:25:24;22.50;;;11.57;;
82783;SDS011;72520;55.762;37.780;2023-09-30T09:28:33;12.38;;;7.07;;
82783;SDS011;72520;55.762;37.780;2023-09-30T09:31:38;15.43;;;7.75;;
82783;SDS011;72520;55.762;37.780;2023-09-30T09:34:40;16.58;;;8.75;;
82783;SDS011;72520;55.762;37.780;2023-09-30T09:37:43;14.80;;;8.38;;
82783;SDS011;72520;55.762;37.780;2023-09-30T09:40:58;13.05;;;7.63;;
82783;SDS011;72520;55.762;37.780;2023-09-30T09:44:01;12.85;;;7.57;;
82783;SDS011;72520;55.762;37.780;2023-09-30T09:47:08;13.18;;;6.45;;
82783;SDS011;72520;55.762;37.780;2023-09-30T09:50:22;13.77;;;5.97;;
82783;SDS011;72520;55.762;37.780;2023-09-30T09:53:27;9.65;;;6.30;;
82783;SDS011;72520;55.762;37.780;2023-09-30T09:56:33;16.98;;;6.68;;
82783;SDS011;72520;55.762;37.780;2023-09-30T09:59:36;11.90;;;6.80;;
82783;SDS011;72520;55.762;37.780;2023-09-30T10:02:41;19.13;;;11.02;;
82783;SDS011;72520;55.762;37.780;2023-09-30T10:05:43;27.10;;;16.30;;
82783;SDS011;72520;55.762;37.780;2023-09-30T10:08:46;16.40;;;9.15;;
82783;SDS011;72520;55.762;37.780;2023-09-30T10:11:56;12.02;;;6.53;;
82783;SDS011;72520;55.762;37.780;2023-09-30T10:18:48;10.85;;;6.28;;
82783;SDS011;72520;55.762;37.780;2023-09-30T10:22:24;10.07;;;5.88;;
82783;SDS011;72520;55.762;37.780;2023-09-30T10:25:33;16.48;;;7.93;;
82783;SDS011;72520;55.762;37.780;2023-09-30T10:28:37;14.88;;;7.80;;
82783;SDS011;72520;55.762;37.780;2023-09-30T10:31:49;15.73;;;9.65;;
82783;SDS011;72520;55.762;37.780;2023-09-30T10:34:55;8.63;;;6.10;;
82783;SDS011;72520;55.762;37.780;2023-09-30T10:45:00;12.82;;;6.47;;
82783;SDS011;72520;55.762;37.780;2023-09-30T10:51:43;15.38;;;8.95;;
82783;SDS011;72520;55.762;37.780;2023-09-30T10:54:46;13.93;;;6.60;;
82783;SDS011;72520;55.762;37.780;2023-09-30T10:57:50;13.68;;;6.95;;
82783;SDS011;72520;55.762;37.780;2023-09-30T11:00:53;20.25;;;8.80;;
82783;SDS011;72520;55.762;37.780;2023-09-30T11:03:58;17.60;;;10.23;;
82783;SDS011;72520;55.762;37.780;2023-09-30T11:07:05;17.88;;;8.57;;
82783;SDS011;72520;55.762;37.780;2023-09-30T11:10:11;20.45;;;12.32;;
82783;SDS011;72520;55.762;37.780;2023-09-30T11:13:15;16.67;;;9.25;;
82783;SDS011;72520;55.762;37.780;2023-09-30T11:16:17;9.20;;;6.28;;
82783;SDS011;72520;55.762;37.780;2023-09-30T11:19:19;12.23;;;6.55;;
82783;SDS011;72520;55.762;37.780;2023-09-30T11:22:23;16.27;;;9.40;;
82783;SDS011;72520;55.762;37.780;2023-09-30T11:25:26;14.68;;;8.07;;
82783;SDS011;72520;55.762;37.780;2023-09-30T11:28:35;15.20;;;7.30;;
82783;SDS011;72520;55.762;37.780;2023-09-30T11:31:40;11.23;;;6.97;;
82783;SDS011;72520;55.762;37.780;2023-09-30T11:34:44;9.32;;;6.38;;
82783;SDS011;72520;55.762;37.780;2023-09-30T11:37:47;13.32;;;6.68;;
82783;SDS011;72520;55.762;37.780;2023-09-30T11:40:59;13.85;;;8.35;;
82783;SDS011;72520;55.762;37.780;2023-09-30T11:44:05;15.02;;;7.35;;
82783;SDS011;72520;55.762;37.780;2023-09-30T11:47:13;19.40;;;14.35;;
82783;SDS011;72520;55.762;37.780;2023-09-30T11:50:16;13.70;;;6.85;;
82783;SDS011;72520;55.762;37.780;2023-09-30T11:53:20;22.33;;;13.80;;
82783;SDS011;72520;55.762;37.780;2023-09-30T11:56:22;16.08;;;10.25;;
82783;SDS011;72520;55.762;37.780;2023-09-30T11:59:29;15.25;;;7.05;;
82783;SDS011;72520;55.762;37.780;2023-09-30T12:02:35;14.38;;;7.75;;
82783;SDS011;72520;55.762;37.780;2023-09-30T12:05:40;25.23;;;13.30;;
82783;SDS011;72520;55.762;37.780;2023-09-30T12:08:47;13.10;;;5.80;;
82783;SDS011;72520;55.762;37.780;2023-09-30T12:11:52;14.38;;;7.80;;
82783;SDS011;72520;55.762;37.780;2023-09-30T12:14:54;10.70;;;6.43;;
82783;SDS011;72520;55.762;37.780;2023-09-30T12:17:56;11.68;;;7.72;;
82783;SDS011;72520;55.762;37.780;2023-09-30T12:20:58;12.32;;;6.20;;
82783;SDS011;72520;55.762;37.780;2023-09-30T12:24:02;13.23;;;6.68;;
82783;SDS011;72520;55.762;37.780;2023-09-30T12:27:05;14.32;;;8.43;;
82783;SDS011;72520;55.762;37.780;2023-09-30T12:30:07;11.40;;;6.13;;
82783;SDS011;72520;55.762;37.780;2023-09-30T12:33:12;16.98;;;9.68;;
82783;SDS011;72520;55.762;37.780;2023-09-30T12:36:14;16.60;;;8.65;;
82783;SDS011;72520;55.762;37.780;2023-09-30T12:39:18;10.82;;;6.75;;
82783;SDS011;72520;55.762;37.780;2023-09-30T12:42:24;15.88;;;9.95;;
82783;SDS011;72520;55.762;37.780;2023-09-30T12:45:26;17.08;;;8.32;;
82783;SDS011;72520;55.762;37.780;2023-09-30T12:48:28;15.27;;;8.13;;
82783;SDS011;72520;55.762;37.780;2023-09-30T12:51:30;13.27;;;7.43;;
82783;SDS011;72520;55.762;37.780;2023-09-30T12:54:34;11.93;;;6.75;;
82783;SDS011;72520;55.762;37.780;2023-09-30T12:57:36;12.55;;;8.00;;
82783;SDS011;72520;55.762;37.780;2023-09-30T13:00:39;16.70;;;10.48;;
82783;SDS011;72520;55.762;37.780;2023-09-30T13:03:41;12.77;;;8.45;;
82783;SDS011;72520;55.762;37.780;2023-09-30T13:06:43;12.65;;;7.60;;
82783;SDS011;72520;55.762;37.780;2023-09-30T13:09:47;12.63;;;6.45;;
82783;SDS011;72520;55.762;37.780;2023-09-30T13:12:50;13.52;;;7.25;;
82783;SDS011;72520;55.762;37.780;2023-09-30T13:15:53;10.05;;;5.93;;
82783;SDS011;72520;55.762;37.780;2023-09-30T13:18:56;13.40;;;5.68;;
82783;SDS011;72520;55.762;37.780;2023-09-30T13:21:58;11.48;;;5.75;;
82783;SDS011;72520;55.762;37.780;2023-09-30T13:25:02;9.43;;;6.07;;
82783;SDS011;72520;55.762;37.780;2023-09-30T13:28:05;14.98;;;6.53;;
82783;SDS011;72520;55.762;37.780;2023-09-30T13:31:07;14.45;;;6.53;;
82783;SDS011;72520;55.762;37.780;2023-09-30T13:34:10;13.23;;;6.63;;
82783;SDS011;72520;55.762;37.780;2023-09-30T13:37:13;14.80;;;6.32;;
82783;SDS011;72520;55.762;37.780;2023-09-30T13:40:16;12.50;;;6.05;;
82783;SDS011;72520;55.762;37.780;2023-09-30T13:43:20;12.93;;;6.00;;
82783;SDS011;72520;55.762;37.780;2023-09-30T13:46:24;16.25;;;6.28;;
82783;SDS011;72520;55.762;37.780;2023-09-30T13:49:28;18.25;;;6.25;;
82783;SDS011;72520;55.762;37.780;2023-09-30T13:52:30;10.85;;;6.55;;
82783;SDS011;72520;55.762;37.780;2023-09-30T13:55:38;11.25;;;6.28;;
82783;SDS011;72520;55.762;37.780;2023-09-30T13:58:41;14.57;;;6.55;;
82783;SDS011;72520;55.762;37.780;2023-09-30T14:01:43;13.50;;;5.93;;
82783;SDS011;72520;55.762;37.780;2023-09-30T14:04:45;11.70;;;5.82;;
82783;SDS011;72520;55.762;37.780;2023-09-30T14:07:47;13.25;;;6.32;;
82783;SDS011;72520;55.762;37.780;2023-09-30T14:10:51;12.00;;;6.40;;
82783;SDS011;72520;55.762;37.780;2023-09-30T14:13:53;11.35;;;5.72;;
82783;SDS011;72520;55.762;37.780;2023-09-30T14:16:55;11.07;;;5.50;;
82783;SDS011;72520;55.762;37.780;2023-09-30T14:19:58;11.23;;;5.15;;
82783;SDS011;72520;55.762;37.780;2023-09-30T14:23:00;13.80;;;7.03;;
82783;SDS011;72520;55.762;37.780;2023-09-30T14:26:04;16.25;;;6.10;;
82783;SDS011;72520;55.762;37.780;2023-09-30T14:29:11;12.10;;;6.22;;
82783;SDS011;72520;55.762;37.780;2023-09-30T14:32:18;10.88;;;6.45;;
82783;SDS011;72520;55.762;37.780;2023-09-30T14:35:21;12.45;;;6.35;;
82783;SDS011;72520;55.762;37.780;2023-09-30T14:38:23;11.85;;;6.35;;
82783;SDS011;72520;55.762;37.780;2023-09-30T14:41:27;12.68;;;6.47;;
82783;SDS011;72520;55.762;37.780;2023-09-30T14:44:29;11.07;;;5.90;;
82783;SDS011;72520;55.762;37.780;2023-09-30T14:47:31;11.18;;;6.05;;
82783;SDS011;72520;55.762;37.780;2023-09-30T14:50:34;12.88;;;6.53;;
82783;SDS011;72520;55.762;37.780;2023-09-30T14:53:37;12.85;;;6.40;;
82783;SDS011;72520;55.762;37.780;2023-09-30T14:56:41;15.75;;;6.85;;
82783;SDS011;72520;55.762;37.780;2023-09-30T14:59:43;11.85;;;6.07;;
82783;SDS011;72520;55.762;37.780;2023-09-30T15:02:46;11.00;;;6.88;;
82783;SDS011;72520;55.762;37.780;2023-09-30T15:05:48;13.15;;;6.75;;
82783;SDS011;72520;55.762;37.780;2023-09-30T15:08:50;11.68;;;6.28;;
82783;SDS011;72520;55.762;37.780;2023-09-30T15:12:00;26.00;;;7.78;;
82783;SDS011;72520;55.762;37.780;2023-09-30T15:15:06;17.88;;;7.70;;
82783;SDS011;72520;55.762;37.780;2023-09-30T15:18:09;20.35;;;7.55;;
82783;SDS011;72520;55.762;37.780;2023-09-30T15:21:11;11.57;;;7.55;;
82783;SDS011;72520;55.762;37.780;2023-09-30T15:24:14;14.18;;;6.97;;
82783;SDS011;72520;55.762;37.780;2023-09-30T15:27:17;20.00;;;7.95;;
82783;SDS011;72520;55.762;37.780;2023-09-30T15:30:22;19.70;;;7.95;;
82783;SDS011;72520;55.762;37.780;2023-09-30T15:33:24;15.60;;;6.65;;
82783;SDS011;72520;55.762;37.780;2023-09-30T15:36:30;16.42;;;6.70;;
82783;SDS011;72520;55.762;37.780;2023-09-30T15:39:36;17.65;;;7.10;;
82783;SDS011;72520;55.762;37.780;2023-09-30T15:42:41;17.23;;;7.15;;
82783;SDS011;72520;55.762;37.780;2023-09-30T15:51:47;16.23;;;7.70;;
82783;SDS011;72520;55.762;37.780;2023-09-30T15:54:51;17.52;;;8.00;;
82783;SDS011;72520;55.762;37.780;2023-09-30T15:57:55;14.38;;;7.72;;
82783;SDS011;72520;55.762;37.780;2023-09-30T16:04:00;16.90;;;7.75;;
82783;SDS011;72520;55.762;37.780;2023-09-30T16:07:02;14.38;;;7.20;;
82783;SDS011;72520;55.762;37.780;2023-09-30T16:10:05;18.13;;;7.07;;
82783;SDS011;72520;55.762;37.780;2023-09-30T16:13:09;14.05;;;8.07;;
82783;SDS011;72520;55.762;37.780;2023-09-30T16:16:16;13.27;;;6.68;;
82783;SDS011;72520;55.762;37.780;2023-09-30T16:19:18;14.30;;;7.45;;
82783;SDS011;72520;55.762;37.780;2023-09-30T16:22:20;14.55;;;7.72;;
82783;SDS011;72520;55.762;37.780;2023-09-30T16:25:22;19.77;;;9.15;;
82783;SDS011;72520;55.762;37.780;2023-09-30T16:28:26;14.90;;;7.75;;
82783;SDS011;72520;55.762;37.780;2023-09-30T16:31:29;15.45;;;8.25;;
82783;SDS011;72520;55.762;37.780;2023-09-30T16:34:31;17.98;;;8.60;;
82783;SDS011;72520;55.762;37.780;2023-09-30T16:37:33;17.20;;;8.52;;
82783;SDS011;72520;55.762;37.780;2023-09-30T16:40:35;18.30;;;8.13;;
82783;SDS011;72520;55.762;37.780;2023-09-30T16:43:39;22.67;;;8.02;;
82783;SDS011;72520;55.762;37.780;2023-09-30T16:49:43;16.05;;;8.75;;
82783;SDS011;72520;55.762;37.780;2023-09-30T16:52:47;16.15;;;8.13;;
82783;SDS011;72520;55.762;37.780;2023-09-30T16:55:50;18.45;;;8.45;;
82783;SDS011;72520;55.762;37.780;2023-09-30T16:58:53;20.23;;;8.63;;
82783;SDS011;72520;55.762;37.780;2023-09-30T17:01:57;17.02;;;8.68;;
82783;SDS011;72520;55.762;37.780;2023-09-30T17:04:59;16.60;;;8.77;;
82783;SDS011;72520;55.762;37.780;2023-09-30T17:08:04;19.70;;;9.10;;
82783;SDS011;72520;55.762;37.780;2023-09-30T17:11:07;17.90;;;8.80;;
82783;SDS011;72520;55.762;37.780;2023-09-30T17:14:12;19.48;;;8.82;;
82783;SDS011;72520;55.762;37.780;2023-09-30T17:17:15;17.35;;;8.95;;
82783;SDS011;72520;55.762;37.780;2023-09-30T17:20:17;16.42;;;8.80;;
82783;SDS011;72520;55.762;37.780;2023-09-30T17:23:19;15.65;;;8.18;;
82783;SDS011;72520;55.762;37.780;2023-09-30T17:26:21;17.58;;;8.65;;
82783;SDS011;72520;55.762;37.780;2023-09-30T17:29:25;20.75;;;8.75;;
82783;SDS011;72520;55.762;37.780;2023-09-30T17:32:27;14.38;;;8.27;;
82783;SDS011;72520;55.762;37.780;2023-09-30T17:35:29;19.02;;;8.90;;
82783;SDS011;72520;55.762;37.780;2023-09-30T17:38:32;21.58;;;11.77;;
82783;SDS011;72520;55.762;37.780;2023-09-30T17:41:35;19.13;;;10.43;;
82783;SDS011;72520;55.762;37.780;2023-09-30T17:44:39;18.42;;;9.23;;
82783;SDS011;72520;55.762;37.780;2023-09-30T17:50:44;22.05;;;8.88;;
82783;SDS011;72520;55.762;37.780;2023-09-30T17:53:47;18.52;;;9.02;;
82783;SDS011;72520;55.762;37.780;2023-09-30T17:56:49;37.88;;;25.88;;
82783;SDS011;72520;55.762;37.780;2023-09-30T17:59:55;22.60;;;13.52;;
82783;SDS011;72520;55.762;37.780;2023-09-30T18:06:03;19.10;;;8.95;;
82783;SDS011;72520;55.762;37.780;2023-09-30T18:09:06;19.33;;;9.45;;
82783;SDS011;72520;55.762;37.780;2023-09-30T18:12:09;25.73;;;14.57;;
82783;SDS011;72520;55.762;37.780;2023-09-30T18:15:12;16.05;;;7.97;;
82783;SDS011;72520;55.762;37.780;2023-09-30T18:18:15;21.00;;;10.32;;
82783;SDS011;72520;55.762;37.780;2023-09-30T18:21:17;14.98;;;8.48;;
82783;SDS011;72520;55.762;37.780;2023-09-30T18:24:19;37.65;;;21.67;;
82783;SDS011;72520;55.762;37.780;2023-09-30T18:27:21;35.53;;;22.63;;